Time;durP1;ratioP1;P1;durP2;ratioP2;P2;SDS_P1;SDS_P2;PMS_P1;PMS_P2;Temp;Humidity;BMP_temperature;BMP_pressure;BME280_temperature;BME280_humidity;BME280_pressure;Samples;Min_cycle;Max_cycle;Signal;HPM_P1;HPM_P2
2021/11/28 00:02:27;;;;;;;3.37;1.40;;;10.70;99.90;;;;;;4994366;28;20211;-87
2021/11/28 00:07:50;;;;;;;1.23;1.10;;;10.70;99.90;;;;;;5178887;23;20344;-88
2021/11/28 00:10:43;;;;;;;1.40;1.10;;;10.70;99.90;;;;;;4951289;29;20208;-88
2021/11/28 00:13:33;;;;;;;2.37;1.33;;;10.70;99.90;;;;;;4953676;29;20204;-88
2021/11/28 00:16:07;;;;;;;2.80;1.63;;;10.70;99.90;;;;;;4962098;28;20211;-89
2021/11/28 00:18:43;;;;;;;3.70;1.60;;;10.70;99.90;;;;;;4980474;28;20638;-88
2021/11/28 00:21:19;;;;;;;2.03;1.30;;;10.60;99.90;;;;;;4959333;28;20211;-88
2021/11/28 00:23:51;;;;;;;4.27;1.80;;;10.60;99.90;;;;;;4964451;28;20207;-88
2021/11/28 00:26:26;;;;;;;2.23;1.80;;;10.60;99.90;;;;;;4973398;28;20191;-89
2021/11/28 00:28:58;;;;;;;2.47;2.27;;;10.70;99.90;;;;;;4970130;28;20341;-89
2021/11/28 00:31:31;;;;;;;3.97;2.20;;;10.70;99.90;;;;;;4957008;29;20211;-88
2021/11/28 00:34:07;;;;;;;2.53;2.33;;;10.70;99.90;;;;;;4964054;28;20204;-88
2021/11/28 00:36:39;;;;;;;2.40;2.20;;;10.70;99.90;;;;;;4953681;29;20200;-93
2021/11/28 00:39:11;;;;;;;4.13;2.90;;;10.70;99.90;;;;;;4976795;28;20243;-87
2021/11/28 00:41:49;;;;;;;4.30;3.10;;;10.80;99.90;;;;;;4968410;28;20290;-86
2021/11/28 00:44:42;;;;;;;4.23;2.60;;;10.80;99.90;;;;;;4970689;28;20216;-86
2021/11/28 00:47:16;;;;;;;3.13;2.83;;;10.90;99.90;;;;;;4976776;28;20282;-86
2021/11/28 00:50:04;;;;;;;6.03;2.40;;;11.10;99.90;;;;;;4971315;28;20223;-88
2021/11/28 00:52:37;;;;;;;3.17;2.27;;;11.30;99.90;;;;;;4969907;29;20222;-86
2021/11/28 00:55:11;;;;;;;4.97;2.10;;;11.40;99.90;;;;;;4971033;28;20796;-88
2021/11/28 00:57:47;;;;;;;3.93;2.00;;;11.60;99.90;;;;;;4978417;28;20223;-86
2021/11/28 01:00:19;;;;;;;2.67;2.20;;;11.60;99.90;;;;;;4990206;28;20249;-85
2021/11/28 01:02:53;;;;;;;2.00;1.60;;;11.70;99.90;;;;;;4983662;28;20204;-87
2021/11/28 01:05:28;;;;;;;3.23;2.20;;;11.80;99.90;;;;;;4966671;28;20214;-86
2021/11/28 01:08:02;;;;;;;1.73;1.63;;;11.90;99.90;;;;;;4983297;28;20210;-86
2021/11/28 01:10:37;;;;;;;2.83;1.70;;;12.00;99.90;;;;;;4976988;28;20214;-86
2021/11/28 01:13:10;;;;;;;3.17;2.10;;;12.10;99.90;;;;;;4972336;29;20203;-87
2021/11/28 01:15:43;;;;;;;2.47;1.27;;;12.10;99.90;;;;;;4973808;28;20223;-84
2021/11/28 01:18:15;;;;;;;2.70;1.50;;;12.20;99.90;;;;;;4974866;28;20217;-86
2021/11/28 01:20:50;;;;;;;1.40;1.30;;;12.20;99.90;;;;;;4990614;28;20222;-86
2021/11/28 01:23:23;;;;;;;2.57;1.67;;;12.30;99.90;;;;;;4982996;28;20228;-85
2021/11/28 01:25:55;;;;;;;1.67;1.50;;;12.30;99.90;;;;;;4988474;28;20226;-86
2021/11/28 01:28:28;;;;;;;1.40;1.20;;;12.40;99.90;;;;;;4974303;28;20211;-86
2021/11/28 01:31:02;;;;;;;1.53;1.43;;;12.50;99.90;;;;;;4972376;28;20222;-86
2021/11/28 01:36:23;;;;;;;1.70;1.60;;;12.50;99.90;;;;;;4950928;29;20223;-84
2021/11/28 01:38:57;;;;;;;1.43;1.33;;;12.50;99.90;;;;;;4953059;28;20348;-87
2021/11/28 01:41:30;;;;;;;2.53;1.37;;;12.70;99.90;;;;;;4970531;28;20222;-86
2021/11/28 01:44:03;;;;;;;2.30;1.40;;;12.70;99.90;;;;;;4968003;28;20707;-86
2021/11/28 01:46:39;;;;;;;1.53;1.30;;;12.70;99.90;;;;;;4978448;28;20222;-87
2021/11/28 01:49:16;;;;;;;2.17;1.30;;;12.70;99.90;;;;;;4984588;28;20203;-86
2021/11/28 01:51:54;;;;;;;3.60;1.43;;;12.70;99.90;;;;;;4970790;28;20199;-89
2021/11/28 01:54:27;;;;;;;4.00;3.67;;;12.80;99.90;;;;;;4982079;28;20253;-87
2021/11/28 01:57:00;;;;;;;1.60;1.50;;;12.80;99.90;;;;;;4978828;28;20507;-86
2021/11/28 01:59:33;;;;;;;1.60;1.50;;;12.80;99.90;;;;;;4984374;28;20226;-89
2021/11/28 02:02:08;;;;;;;1.97;1.87;;;12.80;99.90;;;;;;4989940;28;20282;-87
2021/11/28 02:04:42;;;;;;;1.10;1.00;;;12.80;99.90;;;;;;4990298;28;20204;-96
2021/11/28 02:07:20;;;;;;;1.17;1.07;;;12.80;99.90;;;;;;4992530;28;20241;-89
2021/11/28 02:10:07;;;;;;;1.60;1.13;;;12.80;99.90;;;;;;4978240;28;20239;-88
2021/11/28 02:12:40;;;;;;;1.10;1.00;;;12.90;99.90;;;;;;4972107;28;20243;-86
2021/11/28 02:15:13;;;;;;;1.10;1.00;;;13.00;99.90;;;;;;4959754;28;20264;-88
2021/11/28 02:17:54;;;;;;;1.40;1.10;;;12.90;99.90;;;;;;4958579;28;20218;-87
2021/11/28 02:20:30;;;;;;;2.40;1.00;;;13.00;99.90;;;;;;4972035;28;20231;-88
2021/11/28 02:23:05;;;;;;;1.10;1.00;;;13.00;99.90;;;;;;4972488;28;20309;-86
2021/11/28 02:25:40;;;;;;;1.20;1.03;;;13.00;99.90;;;;;;4989919;28;20214;-86
2021/11/28 02:28:14;;;;;;;2.43;1.10;;;13.00;99.90;;;;;;4980202;28;20303;-86
2021/11/28 02:30:50;;;;;;;1.40;1.07;;;13.10;99.90;;;;;;4950902;29;20241;-86
2021/11/28 02:33:23;;;;;;;1.07;0.97;;;13.10;99.90;;;;;;4951140;29;20212;-86
2021/11/28 02:35:56;;;;;;;1.37;0.80;;;13.10;99.90;;;;;;4953409;28;20212;-87
2021/11/28 02:38:33;;;;;;;0.90;0.90;;;13.10;99.90;;;;;;4972528;28;20234;-87
2021/11/28 02:41:09;;;;;;;3.90;2.03;;;13.10;99.90;;;;;;4984002;28;20199;-87
2021/11/28 02:43:50;;;;;;;3.23;0.90;;;13.10;99.90;;;;;;4975312;28;20183;-86
2021/11/28 02:46:36;;;;;;;1.30;1.13;;;13.10;99.90;;;;;;4958900;28;20208;-86
2021/11/28 02:49:10;;;;;;;1.43;1.30;;;13.10;99.90;;;;;;4994021;28;20276;-86
2021/11/28 02:51:44;;;;;;;1.40;1.20;;;13.10;99.90;;;;;;4976453;28;20203;-87
2021/11/28 02:54:20;;;;;;;1.10;1.00;;;13.10;99.90;;;;;;4986464;28;20226;-86
2021/11/28 02:56:52;;;;;;;2.13;1.20;;;13.00;99.90;;;;;;4984310;28;20206;-88
2021/11/28 03:04:56;;;;;;;1.13;1.03;;;13.10;99.90;;;;;;4970812;29;20712;-88
2021/11/28 03:07:31;;;;;;;2.13;1.10;;;13.10;99.90;;;;;;4953119;29;20211;-87
2021/11/28 03:10:09;;;;;;;4.40;4.10;;;13.10;99.90;;;;;;4944614;29;20204;-86
2021/11/28 03:12:49;;;;;;;2.10;2.00;;;13.20;99.90;;;;;;4948394;28;20236;-87
2021/11/28 03:15:25;;;;;;;1.50;1.10;;;13.10;99.90;;;;;;4955618;29;20347;-88
2021/11/28 03:18:10;;;;;;;2.23;1.10;;;13.20;99.90;;;;;;4957686;28;20191;-85
2021/11/28 03:34:38;;;;;;;2.40;1.10;;;13.40;99.90;;;;;;6316814;22;20224;-86
2021/11/28 03:37:15;;;;;;;1.40;1.10;;;13.30;99.90;;;;;;6341225;22;20193;-87
2021/11/28 03:39:50;;;;;;;1.83;1.00;;;13.30;99.90;;;;;;6341017;22;20201;-86
2021/11/28 03:42:26;;;;;;;8.23;5.63;;;13.40;99.90;;;;;;6341471;22;20166;-86
2021/11/28 03:53:06;;;;;;;4.07;3.77;;;13.40;99.90;;;;;;6304349;22;20209;-86
2021/11/28 03:55:42;;;;;;;14.37;6.57;;;13.40;99.90;;;;;;6299322;22;20562;-86
2021/11/28 03:58:15;;;;;;;1.10;0.80;;;13.50;99.90;;;;;;6300842;22;20202;-86
2021/11/28 04:00:48;;;;;;;1.27;1.10;;;13.50;99.90;;;;;;6299919;22;20213;-86
2021/11/28 04:03:22;;;;;;;2.03;1.83;;;13.50;99.90;;;;;;6302683;22;20182;-87
2021/11/28 04:05:58;;;;;;;0.80;0.77;;;13.50;99.90;;;;;;6275480;22;20238;-86
2021/11/28 04:08:35;;;;;;;39.60;14.83;;;13.50;99.90;;;;;;6299641;22;20233;-87
2021/11/28 04:11:09;;;;;;;4.20;3.83;;;13.50;99.90;;;;;;6303766;22;20196;-87
2021/11/28 04:13:42;;;;;;;1.10;1.00;;;13.50;99.90;;;;;;6300304;22;20318;-87
2021/11/28 04:16:19;;;;;;;1.93;1.83;;;13.50;99.90;;;;;;6302201;22;20251;-86
2021/11/28 04:18:51;;;;;;;0.93;0.80;;;13.50;99.90;;;;;;6300806;22;20173;-87
2021/11/28 04:21:25;;;;;;;7.70;5.00;;;13.50;99.90;;;;;;6299905;22;20177;-85
2021/11/28 04:24:01;;;;;;;10.13;2.03;;;13.50;99.90;;;;;;6301864;22;20174;-86
2021/11/28 04:26:35;;;;;;;1.83;1.30;;;13.50;99.90;;;;;;6301510;22;20170;-87
2021/11/28 04:29:08;;;;;;;1.57;1.47;;;13.60;99.90;;;;;;6274527;22;20163;-88
2021/11/28 04:31:41;;;;;;;2.10;1.90;;;13.50;99.90;;;;;;6297396;22;20546;-88
2021/11/28 04:36:57;;;;;;;1.53;1.37;;;13.50;99.90;;;;;;6261227;22;20244;-86
2021/11/28 04:39:35;;;;;;;4.00;3.70;;;13.60;99.90;;;;;;6262523;23;20191;-86
2021/11/28 04:42:08;;;;;;;0.80;0.80;;;13.60;99.90;;;;;;6265289;23;20206;-86
2021/11/28 04:44:42;;;;;;;2.03;1.90;;;13.60;99.90;;;;;;6265755;23;20693;-84
2021/11/28 04:47:18;;;;;;;1.43;1.30;;;13.60;99.90;;;;;;6240011;23;20167;-87
2021/11/28 04:49:51;;;;;;;31.47;4.83;;;13.70;99.90;;;;;;6270755;22;20167;-87
2021/11/28 04:52:29;;;;;;;1.27;0.80;;;13.70;99.90;;;;;;6269314;23;20168;-85
2021/11/28 04:55:05;;;;;;;1.93;1.10;;;13.70;99.90;;;;;;6272079;22;20156;-87
2021/11/28 04:57:41;;;;;;;0.70;0.70;;;13.60;99.90;;;;;;6271965;22;20198;-87
2021/11/28 05:03:06;;;;;;;1.10;0.90;;;13.70;99.90;;;;;;6270491;22;20211;-86
2021/11/28 05:05:43;;;;;;;0.77;0.70;;;13.70;99.90;;;;;;6278797;22;20202;-86
2021/11/28 05:08:20;;;;;;;2.63;0.80;;;13.70;99.90;;;;;;6294768;22;20195;-87
2021/11/28 05:13:31;;;;;;;1.80;0.97;;;13.70;99.90;;;;;;6306923;22;20239;-87
2021/11/28 05:16:04;;;;;;;17.43;9.77;;;13.70;99.90;;;;;;6313193;22;20747;-87
2021/11/28 05:18:37;;;;;;;0.90;0.90;;;13.80;99.90;;;;;;6313084;22;20190;-88
2021/11/28 05:21:09;;;;;;;1.07;0.97;;;13.80;99.90;;;;;;6318091;22;20209;-87
2021/11/28 05:23:43;;;;;;;0.90;0.80;;;13.80;99.90;;;;;;6328093;22;20181;-87
2021/11/28 05:26:15;;;;;;;1.23;0.90;;;13.80;99.90;;;;;;6325984;22;20171;-87
2021/11/28 05:28:50;;;;;;;2.23;2.03;;;13.80;99.90;;;;;;6312289;22;20230;-87
2021/11/28 05:31:22;;;;;;;1.17;0.90;;;13.80;99.90;;;;;;6312030;22;20182;-87
2021/11/28 05:33:54;;;;;;;0.63;0.60;;;13.80;99.90;;;;;;6312419;22;20178;-86
2021/11/28 05:36:27;;;;;;;1.53;0.90;;;13.90;99.90;;;;;;6313136;22;20167;-86
2021/11/28 05:38:59;;;;;;;0.93;0.70;;;13.90;99.90;;;;;;6312214;22;20167;-84
2021/11/28 05:41:31;;;;;;;25.87;8.87;;;13.80;99.90;;;;;;6318863;22;20178;-86
2021/11/28 05:44:07;;;;;;;2.30;0.87;;;13.90;99.90;;;;;;6329820;22;20171;-86
2021/11/28 05:46:39;;;;;;;4.43;4.03;;;13.90;99.90;;;;;;6317421;22;20162;-87
2021/11/28 05:49:12;;;;;;;0.50;0.50;;;13.80;99.90;;;;;;6322543;22;20193;-87
2021/11/28 05:51:45;;;;;;;1.10;1.00;;;13.90;99.90;;;;;;6310982;22;20178;-86
2021/11/28 05:54:17;;;;;;;3.27;2.80;;;13.90;99.90;;;;;;6320595;22;20620;-87
2021/11/28 05:56:52;;;;;;;1.37;0.90;;;13.90;99.90;;;;;;6325008;22;20165;-87
2021/11/28 05:59:30;;;;;;;7.53;2.90;;;14.00;99.90;;;;;;6315964;22;20162;-87
2021/11/28 06:02:04;;;;;;;0.90;0.70;;;14.00;99.90;;;;;;6314504;22;20256;-86
2021/11/28 06:04:42;;;;;;;6.10;4.37;;;13.90;99.90;;;;;;6313263;22;20269;-88
2021/11/28 06:07:15;;;;;;;0.70;0.70;;;13.90;99.90;;;;;;6316856;22;20189;-87
2021/11/28 06:09:49;;;;;;;1.23;0.80;;;14.00;99.90;;;;;;6312236;22;20173;-88
2021/11/28 06:12:22;;;;;;;6.83;2.73;;;13.90;99.90;;;;;;6313509;22;20218;-87
2021/11/28 06:15:06;;;;;;;1.67;0.83;;;13.90;99.90;;;;;;6327274;22;20174;-85
2021/11/28 06:17:40;;;;;;;8.67;1.73;;;14.00;99.90;;;;;;6321365;22;20174;-88
2021/11/28 06:20:13;;;;;;;3.40;3.17;;;14.00;99.90;;;;;;6315463;22;20201;-86
2021/11/28 06:22:46;;;;;;;1.40;0.70;;;14.00;99.90;;;;;;6314595;22;20220;-86
2021/11/28 06:25:23;;;;;;;1.23;0.83;;;14.10;99.90;;;;;;6317621;22;20171;-87
2021/11/28 06:28:16;;;;;;;2.43;0.90;;;14.10;99.90;;;;;;6321074;22;20198;-91
2021/11/28 06:31:02;;;;;;;0.70;0.40;;;14.00;99.90;;;;;;6319734;22;20150;-87
2021/11/28 06:33:54;;;;;;;0.40;0.40;;;14.10;99.90;;;;;;6322452;22;20178;-87
2021/11/28 06:36:40;;;;;;;20.87;3.50;;;14.10;99.90;;;;;;6320347;22;20170;-85
2021/11/28 06:39:14;;;;;;;0.60;0.60;;;14.10;99.90;;;;;;6321126;22;20173;-86
2021/11/28 06:41:48;;;;;;;1.33;0.70;;;14.10;99.90;;;;;;6320188;22;20201;-87
2021/11/28 06:44:28;;;;;;;3.33;0.50;;;14.10;99.90;;;;;;6316342;22;20150;-86
2021/11/28 06:47:13;;;;;;;4.63;2.70;;;14.20;99.90;;;;;;6313304;22;20182;-87
2021/11/28 06:49:46;;;;;;;0.23;0.23;;;14.30;99.90;;;;;;6313786;22;20170;-87
2021/11/28 06:52:27;;;;;;;1.53;0.40;;;14.30;99.90;;;;;;6314103;22;20189;-85
2021/11/28 06:55:00;;;;;;;4.27;3.90;;;14.40;99.90;;;;;;6309640;22;20171;-86
2021/11/28 06:57:33;;;;;;;3.90;2.97;;;14.30;99.90;;;;;;6311078;22;20177;-88
2021/11/28 07:00:07;;;;;;;0.87;0.37;;;14.30;99.90;;;;;;6312424;22;20508;-88
2021/11/28 07:02:42;;;;;;;1.00;0.40;;;14.30;99.90;;;;;;6311363;22;20169;-88
2021/11/28 07:05:14;;;;;;;0.63;0.20;;;14.20;99.90;;;;;;6310708;22;20174;-87
2021/11/28 07:07:46;;;;;;;1.97;1.70;;;14.30;99.90;;;;;;6308578;22;20177;-86
2021/11/28 07:10:19;;;;;;;0.73;0.20;;;14.30;99.90;;;;;;6310826;22;20170;-87
2021/11/28 07:12:51;;;;;;;0.63;0.40;;;14.30;99.90;;;;;;6309091;22;20553;-88
2021/11/28 07:15:23;;;;;;;1.07;0.40;;;14.20;99.90;;;;;;6311692;22;20232;-88
2021/11/28 07:17:58;;;;;;;1.57;1.47;;;14.20;99.90;;;;;;6311336;22;20181;-88
2021/11/28 07:20:31;;;;;;;0.73;0.30;;;14.30;99.90;;;;;;6310005;22;20222;-88
2021/11/28 07:23:05;;;;;;;0.30;0.30;;;14.20;99.90;;;;;;6309022;22;20188;-88
2021/11/28 07:25:37;;;;;;;6.27;4.77;;;14.20;99.90;;;;;;6312233;22;20174;-88
2021/11/28 07:28:10;;;;;;;1.60;0.50;;;14.20;99.90;;;;;;6310522;22;20170;-86
2021/11/28 07:30:49;;;;;;;0.30;0.30;;;14.20;99.90;;;;;;6328189;22;20628;-88
2021/11/28 07:33:24;;;;;;;9.13;5.03;;;14.20;99.90;;;;;;6308692;22;20241;-87
2021/11/28 07:35:57;;;;;;;2.10;2.00;;;14.20;99.90;;;;;;6309852;22;20173;-88
2021/11/28 07:38:30;;;;;;;2.60;1.90;;;14.20;99.90;;;;;;6309536;22;20174;-87
2021/11/28 07:41:02;;;;;;;2.87;2.67;;;14.30;99.90;;;;;;6309573;22;20194;-87
2021/11/28 07:43:34;;;;;;;0.70;0.30;;;14.30;99.90;;;;;;6309684;22;20170;-87
2021/11/28 07:46:07;;;;;;;2.00;1.23;;;14.20;99.90;;;;;;6310433;22;20198;-87
2021/11/28 07:48:44;;;;;;;0.67;0.60;;;14.20;99.90;;;;;;6310343;22;20700;-86
2021/11/28 07:51:16;;;;;;;4.30;2.67;;;14.20;99.90;;;;;;6310484;22;20178;-87
2021/11/28 07:53:49;;;;;;;0.40;0.40;;;14.30;99.90;;;;;;6310223;22;20174;-86
2021/11/28 07:56:22;;;;;;;11.00;4.43;;;14.20;99.90;;;;;;6319051;22;20175;-86
2021/11/28 07:58:55;;;;;;;1.00;0.30;;;14.20;99.90;;;;;;6318910;22;20208;-87
2021/11/28 08:01:27;;;;;;;2.07;1.87;;;14.10;99.90;;;;;;6324995;22;20200;-86
2021/11/28 08:04:02;;;;;;;1.93;1.77;;;14.20;99.90;;;;;;6315925;22;20197;-86
2021/11/28 08:06:35;;;;;;;0.30;0.30;;;14.30;99.90;;;;;;6313271;22;20207;-87
2021/11/28 08:09:07;;;;;;;0.40;0.40;;;14.20;99.90;;;;;;6312340;22;20234;-86
2021/11/28 08:11:40;;;;;;;1.57;0.30;;;14.20;99.90;;;;;;6311345;22;20196;-86
2021/11/28 08:14:12;;;;;;;0.50;0.50;;;14.20;99.90;;;;;;6311326;22;20585;-87
2021/11/28 08:16:44;;;;;;;0.83;0.30;;;14.20;99.90;;;;;;6310487;22;20171;-87
2021/11/28 08:19:19;;;;;;;87.40;10.23;;;14.20;99.90;;;;;;6312019;22;20230;-88
2021/11/28 08:21:53;;;;;;;2.07;1.97;;;14.30;99.90;;;;;;6312333;22;20194;-87
2021/11/28 08:24:25;;;;;;;0.40;0.30;;;14.20;99.90;;;;;;6311018;22;20174;-88
2021/11/28 08:26:57;;;;;;;0.80;0.40;;;14.20;99.90;;;;;;6310947;22;20174;-87
2021/11/28 08:29:30;;;;;;;0.60;0.60;;;14.20;99.90;;;;;;6309924;22;20220;-88
2021/11/28 08:32:03;;;;;;;1.70;1.60;;;14.20;99.90;;;;;;6309811;22;20167;-90
2021/11/28 08:34:47;;;;;;;0.73;0.50;;;14.20;99.90;;;;;;6311219;22;20182;-87
2021/11/28 08:37:20;;;;;;;48.50;15.30;;;14.20;99.90;;;;;;6310768;22;20245;-87
2021/11/28 08:39:54;;;;;;;1.60;0.40;;;14.20;99.90;;;;;;6311613;22;20170;-87
2021/11/28 08:42:31;;;;;;;3.33;2.60;;;14.20;99.90;;;;;;6311060;22;20205;-87
2021/11/28 08:45:04;;;;;;;2.00;1.00;;;14.20;99.90;;;;;;6311704;22;20472;-86
2021/11/28 08:47:36;;;;;;;0.77;0.40;;;14.20;99.90;;;;;;6310281;22;20204;-87
2021/11/28 08:50:14;;;;;;;0.97;0.60;;;14.30;99.90;;;;;;6310952;22;20167;-87
2021/11/28 08:52:47;;;;;;;0.97;0.70;;;14.20;99.90;;;;;;6313400;22;20197;-87
2021/11/28 08:55:21;;;;;;;1.40;0.40;;;14.20;99.90;;;;;;6309898;22;20569;-87
2021/11/28 08:57:53;;;;;;;0.30;0.30;;;14.20;99.90;;;;;;6309643;22;20181;-86
2021/11/28 09:00:25;;;;;;;0.50;0.43;;;14.10;99.90;;;;;;6311914;22;20188;-88
2021/11/28 09:02:57;;;;;;;7.63;2.20;;;14.10;99.90;;;;;;6309558;22;20191;-88
2021/11/28 09:05:32;;;;;;;1.53;0.33;;;14.20;99.90;;;;;;6311919;22;20166;-88
2021/11/28 09:08:04;;;;;;;0.50;0.40;;;14.20;99.90;;;;;;6311679;22;20188;-87
2021/11/28 09:10:38;;;;;;;0.57;0.50;;;14.10;99.90;;;;;;6323041;22;20166;-86
2021/11/28 09:13:10;;;;;;;0.83;0.83;;;14.10;99.90;;;;;;6326355;22;20189;-87
2021/11/28 09:15:45;;;;;;;0.70;0.40;;;14.20;99.90;;;;;;6329695;22;20218;-87
2021/11/28 09:18:37;;;;;;;1.20;0.50;;;14.10;99.90;;;;;;6313055;22;20280;-86
2021/11/28 09:21:15;;;;;;;0.40;0.37;;;14.10;99.90;;;;;;6312054;22;20170;-87
2021/11/28 09:26:44;;;;;;;0.43;0.43;;;14.10;99.90;;;;;;6310823;22;20616;-88
2021/11/28 09:29:16;;;;;;;1.90;0.30;;;14.10;99.90;;;;;;6312126;22;20173;-87
2021/11/28 09:31:49;;;;;;;0.80;0.60;;;14.10;99.90;;;;;;6310803;22;20182;-88
2021/11/28 09:34:26;;;;;;;0.40;0.40;;;14.10;99.90;;;;;;6309559;22;20178;-87
2021/11/28 09:37:01;;;;;;;0.93;0.40;;;14.10;99.90;;;;;;6316757;22;20265;-88
2021/11/28 09:39:34;;;;;;;2.33;0.60;;;14.10;99.90;;;;;;6307638;22;20174;-87
2021/11/28 09:42:08;;;;;;;4.13;2.90;;;14.20;99.90;;;;;;6319854;22;20190;-87
2021/11/28 09:44:43;;;;;;;1.70;0.50;;;14.20;99.90;;;;;;6315689;22;20170;-87
2021/11/28 09:47:17;;;;;;;0.40;0.40;;;14.20;99.90;;;;;;6309908;22;20165;-87
2021/11/28 09:49:49;;;;;;;1.53;0.40;;;14.20;99.90;;;;;;6308910;22;20631;-88
2021/11/28 09:52:26;;;;;;;1.07;0.50;;;14.20;99.90;;;;;;6313116;22;20182;-89
2021/11/28 09:55:00;;;;;;;1.33;0.40;;;14.20;99.90;;;;;;6310114;22;20178;-88
2021/11/28 09:57:33;;;;;;;0.40;0.33;;;14.20;99.90;;;;;;6310970;22;20197;-89
2021/11/28 10:00:09;;;;;;;0.33;0.20;;;14.30;99.90;;;;;;6313536;22;20181;-87
2021/11/28 10:02:43;;;;;;;0.47;0.40;;;14.50;99.90;;;;;;6314268;22;20201;-87
2021/11/28 10:05:16;;;;;;;1.13;0.30;;;14.50;99.90;;;;;;6323303;22;20174;-88
2021/11/28 10:07:53;;;;;;;0.53;0.33;;;14.50;99.90;;;;;;6332359;22;20166;-87
2021/11/28 10:10:25;;;;;;;0.83;0.80;;;14.50;99.90;;;;;;6322205;22;20166;-87
2021/11/28 10:12:58;;;;;;;0.83;0.30;;;14.60;99.90;;;;;;6329128;22;20174;-88
2021/11/28 10:15:31;;;;;;;0.57;0.30;;;14.50;99.90;;;;;;6330947;22;20248;-87
2021/11/28 10:18:05;;;;;;;0.37;0.30;;;14.60;99.90;;;;;;6318882;22;20217;-87
2021/11/28 10:20:42;;;;;;;1.80;0.40;;;14.50;99.90;;;;;;6315634;22;20159;-86
2021/11/28 10:23:17;;;;;;;1.03;0.40;;;14.50;99.90;;;;;;6308581;22;20285;-87
2021/11/28 10:25:51;;;;;;;0.90;0.20;;;14.50;99.90;;;;;;6310605;22;20170;-86
2021/11/28 10:28:26;;;;;;;0.90;0.90;;;14.70;99.90;;;;;;6309402;22;20170;-87
2021/11/28 10:30:59;;;;;;;0.20;0.20;;;14.80;99.90;;;;;;6312631;22;20173;-87
2021/11/28 10:33:32;;;;;;;0.50;0.30;;;14.80;99.90;;;;;;6308576;22;20175;-87
2021/11/28 10:36:08;;;;;;;0.23;0.20;;;14.80;99.90;;;;;;6310262;22;20170;-87
2021/11/28 10:38:44;;;;;;;1.13;0.30;;;14.80;99.90;;;;;;6309282;22;20631;-89
2021/11/28 10:41:23;;;;;;;0.40;0.20;;;14.70;99.90;;;;;;6309181;22;20178;-88
2021/11/28 10:43:56;;;;;;;0.40;0.40;;;14.70;99.90;;;;;;6308430;22;20245;-87
2021/11/28 10:46:30;;;;;;;1.07;0.40;;;14.70;99.90;;;;;;6309638;22;20174;-87
2021/11/28 10:49:08;;;;;;;0.20;0.20;;;14.70;99.90;;;;;;6309438;22;20208;-88
2021/11/28 10:51:43;;;;;;;1.40;1.30;;;14.70;99.90;;;;;;6308545;22;20173;-87
2021/11/28 10:54:44;;;;;;;0.30;0.30;;;14.80;99.90;;;;;;6307114;22;20182;-88
2021/11/28 10:57:24;;;;;;;0.23;0.23;;;14.90;99.90;;;;;;6309234;22;20180;-88
2021/11/28 11:00:00;;;;;;;1.23;0.57;;;14.80;99.90;;;;;;6308567;22;20556;-88
2021/11/28 11:02:34;;;;;;;0.30;0.30;;;14.90;99.90;;;;;;6311544;22;20177;-87
2021/11/28 11:05:09;;;;;;;0.60;0.60;;;14.90;99.90;;;;;;6309254;22;20641;-89
2021/11/28 11:07:56;;;;;;;0.30;0.30;;;14.90;99.90;;;;;;6308636;22;20167;-87
2021/11/28 11:10:34;;;;;;;0.30;0.30;;;14.90;99.90;;;;;;6308970;22;20171;-86
2021/11/28 11:13:06;;;;;;;0.93;0.20;;;14.90;99.90;;;;;;6307851;22;20676;-88
2021/11/28 11:15:40;;;;;;;2.63;2.43;;;14.90;99.90;;;;;;6309429;22;20175;-87
2021/11/28 11:18:15;;;;;;;0.43;0.30;;;14.90;99.90;;;;;;6309237;22;20174;-89
2021/11/28 11:20:48;;;;;;;0.73;0.53;;;15.00;99.90;;;;;;6307713;22;20174;-88
2021/11/28 11:23:42;;;;;;;0.33;0.30;;;15.00;99.90;;;;;;6307500;22;20198;-88
2021/11/28 11:26:30;;;;;;;0.30;0.30;;;15.00;99.90;;;;;;6308830;22;20170;-87
2021/11/28 11:29:10;;;;;;;1.37;1.27;;;14.90;99.90;;;;;;6309656;22;20204;-88
2021/11/28 11:31:45;;;;;;;1.17;0.33;;;15.00;99.90;;;;;;6308219;22;20588;-87
2021/11/28 11:34:28;;;;;;;1.03;0.50;;;15.00;99.90;;;;;;6308694;22;20174;-88
2021/11/28 11:37:03;;;;;;;0.30;0.20;;;15.10;99.90;;;;;;6318480;22;20231;-87
2021/11/28 11:39:36;;;;;;;0.50;0.20;;;15.20;99.90;;;;;;6309476;22;20237;-87
2021/11/28 11:42:15;;;;;;;0.43;0.30;;;15.10;99.90;;;;;;6310536;22;20166;-88
2021/11/28 11:44:48;;;;;;;1.20;0.20;;;15.10;99.90;;;;;;6311160;22;20190;-88
2021/11/28 11:47:22;;;;;;;0.30;0.30;;;15.10;99.90;;;;;;6310570;22;20178;-88
2021/11/28 11:49:56;;;;;;;0.53;0.40;;;15.10;99.90;;;;;;6309047;22;20174;-87
2021/11/28 11:52:28;;;;;;;1.67;0.30;;;15.10;99.90;;;;;;6309436;22;20162;-88
2021/11/28 11:55:03;;;;;;;0.30;0.30;;;15.00;99.90;;;;;;6310276;22;20175;-88
2021/11/28 11:57:42;;;;;;;0.30;0.30;;;15.10;99.90;;;;;;6309616;22;20169;-87
2021/11/28 12:00:22;;;;;;;39.40;8.23;;;15.20;99.90;;;;;;6314637;22;20181;-88
2021/11/28 12:02:56;;;;;;;0.30;0.20;;;15.20;99.90;;;;;;6309921;22;20612;-88
2021/11/28 12:05:37;;;;;;;0.77;0.47;;;15.10;99.90;;;;;;6310083;22;20181;-88
2021/11/28 12:08:25;;;;;;;7.23;3.57;;;15.10;99.90;;;;;;6311689;22;20197;-87
2021/11/28 12:11:04;;;;;;;0.50;0.23;;;15.20;99.90;;;;;;6312219;22;20197;-86
2021/11/28 12:14:10;;;;;;;0.60;0.60;;;15.10;99.90;;;;;;6312465;22;20182;-88
2021/11/28 12:16:46;;;;;;;0.30;0.30;;;15.20;99.90;;;;;;6266358;22;20186;-87
2021/11/28 12:19:43;;;;;;;17.03;5.30;;;15.10;99.90;;;;;;6311826;22;20178;-88
2021/11/28 12:22:45;;;;;;;1.30;0.30;;;15.10;99.90;;;;;;6312502;22;20180;-90
2021/11/28 12:25:39;;;;;;;0.30;0.30;;;15.10;99.90;;;;;;6319990;22;20201;-88
2021/11/28 12:28:34;;;;;;;1.70;0.40;;;15.20;99.90;;;;;;6332736;22;20159;-89
2021/11/28 12:31:31;;;;;;;0.40;0.30;;;15.10;99.90;;;;;;6329613;22;20546;-88
2021/11/28 12:34:05;;;;;;;0.90;0.60;;;15.00;99.90;;;;;;6314724;22;20184;-87
2021/11/28 12:36:48;;;;;;;0.33;0.30;;;15.00;99.90;;;;;;6313191;22;20166;-86
2021/11/28 12:39:41;;;;;;;0.67;0.23;;;15.00;99.90;;;;;;6310818;22;20159;-88
2021/11/28 12:42:19;;;;;;;0.30;0.30;;;15.00;99.90;;;;;;6311443;22;20189;-90
2021/11/28 12:45:04;;;;;;;1.30;0.23;;;15.00;99.90;;;;;;6314521;22;20201;-88
2021/11/28 12:47:38;;;;;;;0.73;0.73;;;14.90;99.90;;;;;;6309132;22;20239;-88
2021/11/28 12:50:21;;;;;;;1.47;0.30;;;14.90;99.90;;;;;;6310773;22;20170;-87
2021/11/28 12:52:53;;;;;;;2.20;0.83;;;15.00;99.90;;;;;;6308493;22;20176;-87
2021/11/28 12:55:31;;;;;;;0.60;0.30;;;15.00;99.90;;;;;;6310391;22;20182;-88
2021/11/28 12:58:10;;;;;;;1.07;0.37;;;14.90;99.90;;;;;;6314333;22;20170;-89
2021/11/28 13:00:50;;;;;;;0.57;0.40;;;14.90;99.90;;;;;;6310815;22;20170;-87
2021/11/28 13:03:28;;;;;;;18.77;2.20;;;14.90;99.90;;;;;;6309226;22;20166;-88
2021/11/28 13:06:01;;;;;;;0.20;0.20;;;14.90;99.90;;;;;;6310603;22;20177;-88
2021/11/28 13:08:40;;;;;;;0.30;0.30;;;14.90;99.90;;;;;;6310169;22;20174;-87
2021/11/28 13:11:35;;;;;;;0.93;0.77;;;14.90;99.90;;;;;;6309136;22;20356;-87
2021/11/28 13:14:10;;;;;;;0.20;0.20;;;14.90;99.90;;;;;;6308051;22;20193;-86
2021/11/28 13:16:43;;;;;;;0.50;0.30;;;14.90;99.90;;;;;;6309818;22;20660;-87
2021/11/28 13:19:21;;;;;;;0.30;0.30;;;14.90;99.90;;;;;;6310220;22;20171;-86
2021/11/28 13:21:55;;;;;;;1.80;0.40;;;14.90;99.90;;;;;;6308795;22;20200;-86
2021/11/28 13:24:31;;;;;;;0.50;0.27;;;14.90;99.90;;;;;;6308793;22;20216;-87
2021/11/28 13:27:04;;;;;;;0.80;0.27;;;14.80;99.90;;;;;;6310690;22;20629;-87
2021/11/28 13:29:38;;;;;;;0.87;0.30;;;14.80;99.90;;;;;;6310358;22;20477;-87
2021/11/28 13:32:16;;;;;;;0.80;0.80;;;14.90;99.90;;;;;;6310515;22;20495;-86
2021/11/28 13:34:50;;;;;;;0.70;0.20;;;14.80;99.90;;;;;;6310354;22;20489;-87
2021/11/28 13:37:22;;;;;;;1.07;1.07;;;14.80;99.90;;;;;;6312540;22;20232;-87
2021/11/28 13:39:55;;;;;;;3.93;2.77;;;14.80;99.90;;;;;;6310012;22;20224;-88
2021/11/28 13:42:26;;;;;;;0.20;0.20;;;14.70;99.90;;;;;;6308769;22;20177;-87
2021/11/28 13:44:58;;;;;;;0.77;0.50;;;14.80;99.90;;;;;;6309679;22;20210;-88
2021/11/28 13:47:34;;;;;;;2.20;2.00;;;14.70;99.90;;;;;;6313281;22;20584;-88
2021/11/28 13:50:16;;;;;;;0.50;0.50;;;14.80;99.90;;;;;;6310359;22;20171;-89
2021/11/28 13:52:49;;;;;;;0.20;0.20;;;14.70;99.90;;;;;;6309323;22;20181;-88
2021/11/28 13:55:22;;;;;;;0.27;0.27;;;14.70;99.90;;;;;;6310493;22;20174;-88
2021/11/28 13:58:07;;;;;;;1.13;0.27;;;14.70;99.90;;;;;;6312134;22;20194;-88
2021/11/28 14:00:39;;;;;;;2.23;0.93;;;14.70;99.90;;;;;;6313444;22;20507;-87
2021/11/28 14:03:11;;;;;;;0.50;0.40;;;14.60;99.90;;;;;;6309375;22;20165;-87
2021/11/28 14:05:46;;;;;;;0.30;0.20;;;14.80;99.90;;;;;;6309977;22;20250;-87
2021/11/28 14:08:18;;;;;;;1.10;0.40;;;14.70;99.90;;;;;;6308998;22;20185;-87
2021/11/28 14:10:51;;;;;;;1.10;0.40;;;14.60;99.90;;;;;;6309830;22;20537;-88
2021/11/28 14:13:27;;;;;;;1.47;0.30;;;14.60;99.90;;;;;;6311312;22;20517;-87
2021/11/28 14:15:59;;;;;;;3.37;3.13;;;14.60;99.90;;;;;;6308770;22;20178;-88